Overview Statistics Trail Chart Weather Telemetry Raw packets
 

This is the latest recevied weather packets stored in our database for station/object EFIV. If no packets are shown the sender has not sent any weather packets the latest 10 day(s).

<< 5 6 7 8 9 10 11 >>
Time Temp. Humidity Pressure Rain* Wind** Luminosity Snow
1787640236 13.33° C 75% 1014.9 hPa - - - -
1787639036 12.78° C 77% 1014.9 hPa - - - -
1787637837 12.22° C 78% 1014.9 hPa - - - -
1787636639 11.67° C 79% 1014.8 hPa - - - -
1787635438 11.11° C 80% 1014.8 hPa - - - -
1787634240 11.11° C 80% 1014.9 hPa - - - -
1787633040 11.11° C 81% 1014.8 hPa - - - -
1787631839 11.11° C 79% 1014.8 hPa - - - -
1787630636 11.11° C 79% 1014.9 hPa - - - -
1787629436 11.11° C 78% 1014.7 hPa - - - -
1787628236 10.56° C 79% 1014.8 hPa - - - -
1787627038 10.56° C 80% 1014.8 hPa - - - -
1787625835 10.56° C 81% 1014.8 hPa - - - -
1787624636 10.56° C 83% 1014.9 hPa - - - -
1787623228 10.56° C 80% 1015 hPa - - - -
1787622238 10.56° C 81% 1015.1 hPa - - - -
1787621037 10.56° C 83% 1015.3 hPa - - - -
1787619838 10.56° C 81% 1015.3 hPa - - - -
1787618635 10° C 85% 1015.2 hPa - - - -
1787617437 10.56° C 82% 1015.4 hPa - - - -
1787616236 9.44° C 89% 1015.4 hPa - - - -
1787615034 10° C 89% 1015.4 hPa - - - -
1787613838 10° C 88% 1015.4 hPa - - - -
1787612636 10° C 87% 1015.6 hPa - - - -
1787611437 10.56° C 83% 1015.7 hPa - - - -

* Rain since midnight (hover to see other rain measurements)
** Current wind speed in m/s (hover to see current wind gust speed)